createdAt,value
2022-10-22T00:01:50.292Z,8.07
2022-10-22T00:06:51.846Z,8.93
2022-10-22T00:11:53.371Z,8.60
2022-10-22T00:16:54.896Z,6.97
2022-10-22T00:21:56.437Z,8.50
2022-10-22T00:26:58.226Z,8.35
2022-10-22T00:32:00.161Z,9.45
2022-10-22T00:37:01.686Z,9.48
2022-10-22T00:42:03.328Z,9.48
2022-10-22T00:47:04.938Z,9.20
2022-10-22T00:52:06.738Z,10.25
2022-10-22T00:57:08.720Z,8.52
2022-10-22T01:02:10.215Z,9.15
2022-10-22T01:07:20.851Z,7.55
2022-10-22T01:12:49.187Z,8.43
2022-10-22T01:17:59.743Z,8.23
2022-10-22T01:23:08.724Z,8.52
2022-10-22T01:28:36.769Z,8.07
2022-10-22T01:33:40.031Z,8.57
2022-10-22T01:38:42.747Z,8.98
2022-10-22T01:43:44.252Z,9.15
2022-10-22T01:49:06.933Z,9.00
2022-10-22T01:54:25.472Z,9.07
2022-10-22T01:59:47.232Z,9.65
2022-10-22T02:05:00.158Z,8.77
2022-10-22T02:10:03.719Z,10.07
2022-10-22T02:15:06.009Z,10.15
2022-10-22T02:20:14.298Z,10.48
2022-10-22T02:25:16.455Z,10.10
2022-10-22T02:30:20.233Z,10.68
2022-10-22T02:35:24.335Z,9.15
2022-10-22T02:40:26.383Z,9.95
2022-10-22T02:45:27.930Z,10.40
2022-10-22T02:50:29.660Z,9.88
2022-10-22T02:55:31.217Z,10.77
2022-10-22T03:00:32.777Z,10.15
2022-10-22T03:05:34.320Z,11.80
2022-10-22T03:10:35.874Z,10.00
2022-10-22T03:15:37.402Z,10.15
2022-10-22T03:20:39.180Z,10.50
2022-10-22T03:25:43.262Z,9.38
2022-10-22T03:30:44.809Z,10.23
2022-10-22T03:35:47.796Z,8.10
2022-10-22T03:40:49.694Z,9.80
2022-10-22T03:45:51.244Z,10.80
2022-10-22T03:50:52.747Z,10.35
2022-10-22T03:55:54.248Z,10.65
2022-10-22T04:00:55.988Z,11.75
2022-10-22T04:06:05.365Z,12.27
2022-10-22T04:11:07.515Z,11.88
2022-10-22T04:16:09.047Z,11.57
2022-10-22T04:21:12.678Z,10.50
2022-10-22T04:26:14.771Z,13.38
2022-10-22T04:31:19.498Z,11.68
2022-10-22T04:36:21.302Z,13.18
2022-10-22T04:41:25.935Z,13.13
2022-10-22T04:46:29.603Z,12.98
2022-10-22T04:51:32.158Z,12.57
2022-10-22T04:56:33.750Z,13.15
2022-10-22T05:01:41.732Z,13.38
2022-10-22T05:06:45.113Z,12.25
2022-10-22T05:11:49.390Z,14.07
2022-10-22T05:16:52.025Z,13.20
2022-10-22T05:21:56.422Z,13.07
2022-10-22T05:26:59.478Z,11.95
2022-10-22T05:32:01.984Z,15.25
2022-10-22T05:37:03.872Z,14.35
2022-10-22T05:42:05.571Z,14.23
2022-10-22T05:47:07.145Z,14.73
2022-10-22T05:52:08.650Z,16.67
2022-10-22T05:57:10.316Z,13.25
2022-10-22T06:02:11.964Z,14.90
2022-10-22T06:07:15.812Z,15.45
2022-10-22T06:12:17.362Z,16.52
2022-10-22T06:17:18.905Z,16.98
2022-10-22T06:22:20.435Z,18.38
2022-10-22T06:27:21.978Z,19.15
2022-10-22T06:32:23.554Z,16.85
2022-10-22T06:37:25.131Z,18.45
2022-10-22T06:42:28.102Z,17.20
2022-10-22T06:47:29.651Z,17.35
2022-10-22T06:52:31.164Z,15.35
2022-10-22T06:57:32.765Z,15.43
2022-10-22T07:02:34.493Z,12.77
2022-10-22T07:07:36.038Z,10.73
2022-10-22T07:12:37.720Z,9.57
2022-10-22T07:22:42.146Z,10.57
2022-10-22T07:27:44.070Z,9.25
2022-10-22T07:32:45.639Z,7.30
2022-10-22T07:37:47.391Z,7.97
2022-10-22T07:42:49.237Z,7.63
2022-10-22T07:47:50.901Z,4.90
2022-10-22T07:52:53.827Z,4.55
2022-10-22T07:57:57.614Z,3.85
2022-10-22T08:02:59.160Z,3.10
2022-10-22T08:08:00.710Z,3.78
2022-10-22T08:13:02.349Z,3.03
2022-10-22T08:18:04.282Z,2.95
2022-10-22T08:23:05.921Z,2.63
2022-10-22T08:28:07.501Z,2.58
2022-10-22T08:33:09.168Z,2.78
2022-10-22T08:38:10.710Z,2.88
2022-10-22T08:43:18.454Z,3.08
2022-10-22T08:48:31.675Z,2.88
2022-10-22T08:54:02.023Z,2.25
2022-10-22T08:59:13.700Z,2.45
2022-10-22T09:04:24.673Z,3.03
2022-10-22T09:09:31.556Z,3.78
2022-10-22T09:14:33.168Z,1.95
2022-10-22T09:20:05.546Z,2.10
2022-10-22T09:25:27.189Z,2.03
2022-10-22T09:30:33.443Z,1.55
2022-10-22T09:35:57.221Z,1.73
2022-10-22T09:41:01.924Z,1.48
2022-10-22T09:46:06.581Z,1.60
2022-10-22T09:51:13.988Z,0.98
2022-10-22T09:56:23.677Z,1.08
2022-10-22T10:01:28.152Z,2.42
2022-10-22T10:06:32.890Z,1.33
2022-10-22T10:11:53.220Z,1.25
2022-10-22T10:17:00.429Z,1.70
2022-10-22T10:22:18.391Z,1.17
2022-10-22T10:27:30.840Z,1.30
2022-10-22T10:33:17.312Z,1.35
2022-10-22T10:38:29.686Z,1.17
2022-10-22T10:43:50.021Z,1.60
2022-10-22T10:49:09.091Z,1.35
2022-10-22T10:54:25.131Z,0.85
2022-10-22T10:59:50.859Z,1.05
2022-10-22T11:05:15.329Z,1.83
2022-10-22T11:10:27.758Z,1.40
2022-10-22T11:15:34.837Z,1.08
2022-10-22T11:21:01.235Z,1.02
2022-10-22T11:26:06.886Z,1.15
2022-10-22T11:31:16.186Z,1.25
2022-10-22T11:36:22.203Z,1.10
2022-10-22T11:41:29.243Z,1.45
2022-10-22T11:46:58.681Z,0.77
2022-10-22T11:52:22.546Z,1.00
2022-10-22T11:57:38.757Z,1.35
2022-10-22T12:08:02.159Z,1.70
2022-10-22T12:13:13.380Z,1.50
2022-10-22T12:18:16.367Z,1.40
2022-10-22T12:23:18.315Z,1.00
2022-10-22T12:28:19.981Z,1.25
2022-10-22T12:33:23.453Z,1.33
2022-10-22T12:38:25.021Z,0.70
2022-10-22T12:43:29.308Z,1.20
2022-10-22T12:48:36.081Z,0.80
2022-10-22T12:53:43.387Z,0.80
2022-10-22T12:58:58.889Z,1.10
2022-10-22T13:04:14.305Z,0.60
2022-10-22T13:09:27.444Z,0.80
2022-10-22T13:14:33.155Z,0.80
2022-10-22T13:20:00.762Z,0.80
2022-10-22T13:25:17.242Z,0.73
2022-10-22T13:30:39.775Z,0.80
2022-10-22T13:35:41.333Z,0.82
2022-10-22T13:40:42.947Z,0.70
2022-10-22T13:45:45.741Z,0.93
2022-10-22T13:50:48.584Z,0.60
2022-10-22T13:55:50.143Z,1.00
2022-10-22T14:00:57.701Z,0.60
2022-10-22T14:05:59.850Z,0.80
2022-10-22T14:11:01.527Z,0.75
2022-10-22T14:16:05.266Z,0.88
2022-10-22T14:21:06.821Z,1.17
2022-10-22T14:26:18.614Z,0.70
2022-10-22T14:31:20.414Z,0.77
2022-10-22T14:36:21.950Z,0.70
2022-10-22T14:41:24.997Z,0.60
2022-10-22T14:46:26.690Z,0.70
2022-10-22T14:51:28.244Z,0.82
2022-10-22T14:56:29.816Z,0.70
2022-10-22T15:01:31.544Z,0.90
2022-10-22T15:06:33.274Z,4.32
2022-10-22T15:11:34.805Z,1.73
2022-10-22T15:16:36.381Z,1.80
2022-10-22T15:21:37.994Z,1.60
2022-10-22T15:26:39.919Z,2.22
2022-10-22T15:31:52.859Z,1.70
2022-10-22T15:36:56.892Z,0.85
2022-10-22T15:41:58.952Z,1.80
2022-10-22T15:47:03.266Z,3.95
2022-10-22T15:52:07.872Z,3.50
2022-10-22T15:57:09.449Z,6.38
2022-10-22T16:02:11.442Z,9.15
2022-10-22T16:07:13.264Z,14.15
2022-10-22T16:12:17.180Z,2.38
2022-10-22T16:17:19.013Z,1.98
2022-10-22T16:22:20.620Z,2.38
2022-10-22T16:27:22.224Z,3.80
2022-10-22T16:32:23.775Z,6.50
2022-10-22T16:37:25.303Z,5.95
2022-10-22T16:42:26.853Z,8.95
2022-10-22T16:47:28.372Z,2.47
2022-10-22T16:52:29.890Z,3.47
2022-10-22T16:57:31.403Z,6.85
2022-10-22T17:02:32.968Z,7.65
2022-10-22T17:07:34.526Z,8.88
2022-10-22T17:12:36.526Z,7.80
2022-10-22T17:17:38.816Z,9.70
2022-10-22T17:22:40.925Z,5.78
2022-10-22T17:27:44.237Z,6.95
2022-10-22T17:32:46.711Z,3.10
2022-10-22T17:37:48.223Z,3.03
2022-10-22T17:42:49.732Z,4.55
2022-10-22T17:47:51.303Z,3.13
2022-10-22T17:52:52.910Z,3.15
2022-10-22T17:57:54.421Z,2.53
2022-10-22T18:02:56.088Z,2.90
2022-10-22T18:07:57.637Z,2.92
2022-10-22T18:12:59.148Z,3.55
2022-10-22T18:18:00.667Z,4.70
2022-10-22T18:23:02.238Z,10.50
2022-10-22T18:28:03.828Z,8.18
2022-10-22T18:33:05.358Z,7.00
2022-10-22T18:38:07.764Z,5.05
2022-10-22T18:43:09.481Z,18.85
2022-10-22T18:48:13.921Z,8.00
2022-10-22T18:53:16.162Z,5.03
2022-10-22T18:58:17.790Z,5.05
2022-10-22T19:03:19.318Z,5.85
2022-10-22T19:08:20.839Z,8.88
2022-10-22T19:13:22.547Z,21.05
2022-10-22T19:18:24.114Z,26.42
2022-10-22T19:23:26.516Z,8.52
2022-10-22T19:28:28.166Z,6.13
2022-10-22T19:33:29.972Z,6.22
2022-10-22T19:38:31.678Z,4.82
2022-10-22T19:43:33.551Z,5.47
2022-10-22T19:48:35.858Z,5.30
2022-10-22T19:53:38.950Z,5.60
2022-10-22T19:58:40.725Z,7.03
2022-10-22T20:03:42.585Z,8.15
2022-10-22T20:08:44.903Z,8.25
2022-10-22T20:13:51.167Z,7.30
2022-10-22T20:18:54.538Z,5.85
2022-10-22T20:23:56.411Z,6.40
2022-10-22T20:28:58.698Z,8.80
2022-10-22T20:34:01.423Z,8.60
2022-10-22T20:39:06.150Z,9.20
2022-10-22T20:44:14.048Z,8.85
2022-10-22T20:49:17.429Z,9.98
2022-10-22T20:54:19.200Z,10.00
2022-10-22T20:59:21.021Z,7.25
2022-10-22T21:04:22.694Z,5.47
2022-10-22T21:09:25.229Z,6.05
2022-10-22T21:14:26.779Z,4.40
2022-10-22T21:19:28.395Z,4.80
2022-10-22T21:24:30.028Z,3.80
2022-10-22T21:29:31.591Z,4.78
2022-10-22T21:34:38.064Z,3.83
2022-10-22T21:39:42.150Z,4.45
2022-10-22T21:44:43.947Z,4.55
2022-10-22T21:49:45.715Z,4.40
2022-10-22T21:54:47.357Z,4.45
2022-10-22T21:59:49.034Z,5.63
2022-10-22T22:04:50.665Z,5.68
2022-10-22T22:09:52.285Z,5.80
2022-10-22T22:14:53.963Z,6.60
2022-10-22T22:19:55.660Z,5.32
2022-10-22T22:24:57.221Z,6.35
2022-10-22T22:29:58.812Z,6.50
2022-10-22T22:35:00.379Z,6.13
2022-10-22T22:40:02.377Z,6.75
2022-10-22T22:45:04.596Z,6.95
2022-10-22T22:50:06.707Z,6.43
2022-10-22T22:55:08.799Z,7.43
2022-10-22T23:00:11.180Z,7.15
2022-10-22T23:05:12.695Z,7.10
2022-10-22T23:10:14.350Z,5.53
2022-10-22T23:15:15.910Z,6.13
2022-10-22T23:20:17.469Z,6.07
2022-10-22T23:25:18.970Z,5.93
2022-10-22T23:30:20.591Z,5.40
2022-10-22T23:35:22.225Z,6.03
2022-10-22T23:40:23.724Z,5.82
2022-10-22T23:45:25.369Z,6.25
2022-10-22T23:50:26.879Z,6.90
2022-10-22T23:55:28.428Z,6.32
